Time;durP1;ratioP1;P1;durP2;ratioP2;P2;SDS_P1;SDS_P2;PMS_P1;PMS_P2;Temp;Humidity;BMP_temperature;BMP_pressure;BME280_temperature;BME280_humidity;BME280_pressure;Samples;Min_cycle;Max_cycle;Signal;HPM_P1;HPM_P2
2021/07/29 00:02:25;;;;;;;1.40;1.08;;;23.20;74.00;;;;;;5054195;28;20045;-47
2021/07/29 00:04:51;;;;;;;1.20;1.10;;;23.20;74.00;;;;;;5055374;28;20048;-49
2021/07/29 00:07:17;;;;;;;2.55;1.40;;;23.20;74.70;;;;;;5054803;28;20061;-53
2021/07/29 00:09:46;;;;;;;1.38;1.20;;;23.20;74.10;;;;;;5054983;28;20404;-51
2021/07/29 00:12:13;;;;;;;3.38;1.42;;;23.20;74.10;;;;;;5054557;28;20053;-50
2021/07/29 00:14:38;;;;;;;1.30;1.20;;;23.20;74.10;;;;;;5054096;28;20102;-48
2021/07/29 00:17:09;;;;;;;1.17;1.05;;;23.10;74.00;;;;;;5054855;28;20061;-49
2021/07/29 00:19:35;;;;;;;1.83;1.45;;;23.20;74.00;;;;;;5054420;28;20052;-47
2021/07/29 00:22:01;;;;;;;2.38;1.30;;;23.20;74.10;;;;;;5054554;28;20056;-48
2021/07/29 00:24:26;;;;;;;1.10;1.00;;;23.20;74.10;;;;;;5055037;28;20076;-48
2021/07/29 00:26:52;;;;;;;1.13;1.00;;;23.20;74.10;;;;;;5055073;28;20120;-50
2021/07/29 00:29:18;;;;;;;1.30;1.15;;;23.20;74.10;;;;;;5054252;28;20412;-49
2021/07/29 00:31:43;;;;;;;1.30;1.20;;;23.10;74.00;;;;;;5054097;28;20477;-49
2021/07/29 00:34:09;;;;;;;1.13;1.00;;;23.10;74.00;;;;;;5054439;28;20045;-49
2021/07/29 00:36:35;;;;;;;1.63;1.00;;;23.10;74.00;;;;;;5054885;28;20421;-49
2021/07/29 00:39:02;;;;;;;1.42;1.23;;;23.10;74.00;;;;;;5054555;28;20495;-51
2021/07/29 00:41:28;;;;;;;1.48;1.10;;;23.10;74.10;;;;;;5053753;28;20045;-51
2021/07/29 00:44:04;;;;;;;1.45;1.17;;;23.10;74.10;;;;;;5054127;28;20051;-49
2021/07/29 00:46:33;;;;;;;2.67;1.30;;;23.10;74.00;;;;;;5054235;28;20048;-47
2021/07/29 00:49:04;;;;;;;1.50;1.35;;;23.10;74.10;;;;;;5054330;28;20053;-48
2021/07/29 00:51:30;;;;;;;1.48;1.17;;;23.10;74.00;;;;;;5052466;28;20132;-50
2021/07/29 00:53:56;;;;;;;1.33;1.23;;;23.10;74.10;;;;;;5054256;28;20045;-51
2021/07/29 00:56:22;;;;;;;1.20;1.10;;;23.10;74.00;;;;;;5054319;28;20055;-49
2021/07/29 00:58:48;;;;;;;1.20;1.10;;;23.10;74.00;;;;;;5054405;28;20470;-46
2021/07/29 01:01:14;;;;;;;1.27;1.17;;;23.10;74.10;;;;;;5052765;28;20045;-52
2021/07/29 01:03:40;;;;;;;1.20;1.10;;;23.10;74.10;;;;;;5054093;28;20060;-47
2021/07/29 01:06:06;;;;;;;1.02;1.00;;;23.10;74.10;;;;;;5053838;28;20417;-48
2021/07/29 01:08:31;;;;;;;2.33;1.27;;;23.10;74.00;;;;;;5053827;28;20501;-46
2021/07/29 01:10:57;;;;;;;1.40;1.10;;;23.10;74.00;;;;;;5054126;28;20049;-49
2021/07/29 01:13:23;;;;;;;2.25;1.23;;;23.10;74.00;;;;;;5053355;28;20491;-50
2021/07/29 01:15:48;;;;;;;0.90;0.90;;;23.10;74.10;;;;;;5053357;28;20503;-48
2021/07/29 01:18:15;;;;;;;1.92;1.20;;;23.10;74.10;;;;;;5053603;28;20433;-46
2021/07/29 01:20:40;;;;;;;1.70;1.00;;;23.10;74.10;;;;;;5053935;28;20053;-51
2021/07/29 01:23:06;;;;;;;1.08;0.95;;;23.10;74.10;;;;;;5053080;28;20447;-47
2021/07/29 01:25:32;;;;;;;1.40;1.10;;;23.10;74.10;;;;;;5053568;28;20049;-49
2021/07/29 01:27:57;;;;;;;2.53;1.13;;;23.10;74.10;;;;;;5053506;28;20087;-49
2021/07/29 01:30:23;;;;;;;2.08;1.40;;;23.10;74.10;;;;;;5053633;28;20053;-49
2021/07/29 01:32:49;;;;;;;1.60;1.40;;;23.10;74.10;;;;;;5051848;28;20061;-48
2021/07/29 01:35:15;;;;;;;1.30;1.10;;;23.10;74.10;;;;;;5053566;28;20520;-50
2021/07/29 01:37:41;;;;;;;1.75;1.20;;;23.10;74.00;;;;;;5053314;28;20051;-45
2021/07/29 01:40:08;;;;;;;1.20;0.88;;;23.10;74.00;;;;;;5053438;28;20045;-49
2021/07/29 01:42:34;;;;;;;1.60;1.40;;;23.10;74.10;;;;;;5053221;28;20061;-49
2021/07/29 01:45:01;;;;;;;1.83;1.55;;;23.00;74.00;;;;;;5053004;28;20039;-49
2021/07/29 01:47:26;;;;;;;1.77;1.20;;;23.10;74.10;;;;;;5052681;28;20045;-51
2021/07/29 01:49:53;;;;;;;1.10;1.00;;;23.10;74.00;;;;;;5053252;28;20099;-49
2021/07/29 01:52:19;;;;;;;2.20;1.20;;;23.10;74.10;;;;;;5052088;28;20064;-48
2021/07/29 01:54:45;;;;;;;1.95;1.15;;;22.90;74.00;;;;;;5053433;28;20393;-52
2021/07/29 01:57:11;;;;;;;1.60;1.25;;;23.10;74.10;;;;;;5053194;28;20052;-50
2021/07/29 01:59:36;;;;;;;1.08;0.98;;;23.10;74.10;;;;;;5053082;28;20482;-50
2021/07/29 02:02:05;;;;;;;1.55;1.05;;;23.10;74.10;;;;;;5051684;28;20049;-51
2021/07/29 02:04:31;;;;;;;1.65;1.05;;;23.00;74.00;;;;;;5051767;28;20132;-48
2021/07/29 02:06:56;;;;;;;1.30;1.00;;;23.00;74.10;;;;;;5052386;28;20140;-50
2021/07/29 02:09:22;;;;;;;1.15;1.00;;;23.00;74.00;;;;;;5053163;28;20498;-53
2021/07/29 02:11:52;;;;;;;1.17;1.08;;;23.00;74.00;;;;;;5052869;28;20504;-50
2021/07/29 02:14:21;;;;;;;1.52;0.90;;;23.00;74.00;;;;;;5052032;28;20489;-49
2021/07/29 02:16:48;;;;;;;1.60;1.10;;;23.00;74.00;;;;;;5052786;28;20049;-50
2021/07/29 02:19:14;;;;;;;2.08;1.25;;;23.00;74.10;;;;;;5052019;28;20135;-53
2021/07/29 02:21:40;;;;;;;1.58;0.93;;;23.10;74.10;;;;;;5052859;28;20116;-50
2021/07/29 02:24:06;;;;;;;0.90;0.90;;;22.90;74.00;;;;;;5052094;28;20071;-49
2021/07/29 02:26:31;;;;;;;1.08;0.80;;;23.00;74.10;;;;;;5052584;28;20573;-49
2021/07/29 02:28:57;;;;;;;1.52;0.98;;;23.00;74.10;;;;;;5052869;28;20131;-50
2021/07/29 02:31:22;;;;;;;1.63;1.02;;;23.00;74.10;;;;;;5052629;28;20473;-51
2021/07/29 02:33:48;;;;;;;0.85;0.80;;;23.00;74.10;;;;;;5051689;28;20452;-50
2021/07/29 02:36:15;;;;;;;1.58;1.30;;;23.00;74.10;;;;;;5052208;28;20045;-50
2021/07/29 02:38:41;;;;;;;1.10;1.00;;;23.00;74.10;;;;;;5052736;28;20098;-49
2021/07/29 02:41:06;;;;;;;1.52;1.25;;;23.00;74.10;;;;;;5052630;28;20478;-48
2021/07/29 02:43:32;;;;;;;1.13;1.02;;;23.00;74.10;;;;;;5052303;28;20467;-51
2021/07/29 02:45:58;;;;;;;1.00;0.90;;;23.00;74.10;;;;;;5052080;28;20048;-51
2021/07/29 02:48:23;;;;;;;1.02;0.93;;;23.00;74.10;;;;;;5052279;28;20056;-50
2021/07/29 02:50:54;;;;;;;1.42;1.00;;;23.00;74.10;;;;;;5052013;28;20079;-51
2021/07/29 02:53:21;;;;;;;1.20;1.10;;;23.00;74.10;;;;;;5052165;28;20136;-47
2021/07/29 02:55:47;;;;;;;1.15;1.00;;;23.00;74.10;;;;;;5052620;28;20045;-54
2021/07/29 02:58:12;;;;;;;1.42;1.27;;;23.00;74.10;;;;;;5052339;28;20071;-49
2021/07/29 03:00:38;;;;;;;1.63;0.95;;;23.00;74.10;;;;;;5052441;28;20128;-51
2021/07/29 03:03:06;;;;;;;1.00;0.90;;;23.00;74.10;;;;;;5052260;28;20069;-51
2021/07/29 03:05:31;;;;;;;1.35;1.05;;;22.90;74.00;;;;;;5051515;28;20126;-48
2021/07/29 03:07:57;;;;;;;0.88;0.88;;;22.90;74.00;;;;;;5052176;28;20095;-46
2021/07/29 03:10:23;;;;;;;1.92;1.23;;;22.90;74.70;;;;;;5052166;28;20521;-50
2021/07/29 03:12:48;;;;;;;1.27;1.05;;;22.90;74.00;;;;;;5052308;28;20134;-50
2021/07/29 03:15:14;;;;;;;1.20;1.05;;;22.90;74.00;;;;;;5055496;28;20052;-48
2021/07/29 03:17:40;;;;;;;1.30;1.02;;;22.90;74.10;;;;;;5055752;28;20033;-50
2021/07/29 03:20:06;;;;;;;1.05;0.90;;;22.90;74.00;;;;;;5055841;28;20482;-49
2021/07/29 03:22:32;;;;;;;1.30;1.00;;;22.90;74.00;;;;;;5055785;28;20068;-48
2021/07/29 03:24:57;;;;;;;1.13;0.90;;;22.90;74.10;;;;;;5055481;28;20049;-49
2021/07/29 03:27:23;;;;;;;1.08;0.90;;;22.90;74.00;;;;;;5056000;28;20048;-49
2021/07/29 03:29:49;;;;;;;1.00;0.90;;;22.90;74.00;;;;;;5055384;28;20045;-50
2021/07/29 03:32:15;;;;;;;1.13;1.00;;;22.90;74.10;;;;;;5055633;28;20057;-48
2021/07/29 03:34:40;;;;;;;1.20;0.80;;;22.90;74.10;;;;;;5055452;28;20098;-49
2021/07/29 03:37:08;;;;;;;1.42;1.00;;;22.90;74.10;;;;;;5055073;28;20045;-51
2021/07/29 03:39:33;;;;;;;1.55;1.00;;;22.90;74.00;;;;;;5054671;28;20048;-50
2021/07/29 03:41:59;;;;;;;0.70;0.70;;;22.90;74.00;;;;;;5054147;28;20101;-55
2021/07/29 03:44:25;;;;;;;0.85;0.70;;;22.90;74.10;;;;;;5054134;28;20057;-52
2021/07/29 03:46:51;;;;;;;1.13;0.90;;;22.90;74.70;;;;;;5055000;28;20551;-51
2021/07/29 03:49:17;;;;;;;0.85;0.80;;;22.90;74.10;;;;;;5055429;28;20589;-48
2021/07/29 03:51:42;;;;;;;1.27;0.70;;;22.90;74.00;;;;;;5055243;28;20044;-52
2021/07/29 03:54:08;;;;;;;0.70;0.70;;;22.90;74.00;;;;;;5054882;28;20068;-49
2021/07/29 03:56:34;;;;;;;0.68;0.63;;;22.90;74.00;;;;;;5055422;28;20532;-49
2021/07/29 03:59:00;;;;;;;1.05;0.80;;;22.90;74.10;;;;;;5055416;28;20131;-48
2021/07/29 04:01:26;;;;;;;1.38;1.02;;;22.90;74.10;;;;;;5055098;28;20137;-49
2021/07/29 04:03:52;;;;;;;0.63;0.63;;;22.90;74.10;;;;;;5055296;28;20078;-48
2021/07/29 04:06:18;;;;;;;1.10;0.73;;;22.90;74.10;;;;;;5054431;28;20064;-48
2021/07/29 04:08:43;;;;;;;1.30;0.70;;;22.90;74.10;;;;;;5054328;28;20114;-50
2021/07/29 04:11:09;;;;;;;0.95;0.77;;;22.80;74.00;;;;;;5055094;28;20049;-58
2021/07/29 04:13:35;;;;;;;0.60;0.60;;;22.80;74.00;;;;;;5054565;28;20071;-46
2021/07/29 04:16:03;;;;;;;1.58;0.70;;;22.90;74.10;;;;;;5054592;28;20045;-49
2021/07/29 04:18:32;;;;;;;1.30;1.02;;;22.80;74.00;;;;;;5055127;28;20083;-46
2021/07/29 04:20:58;;;;;;;1.23;0.90;;;22.80;74.00;;;;;;5054786;28;20454;-50
2021/07/29 04:23:24;;;;;;;1.23;0.90;;;22.80;74.00;;;;;;5054567;28;20045;-52
2021/07/29 04:25:50;;;;;;;0.73;0.70;;;22.80;74.00;;;;;;5053668;28;20189;-49
2021/07/29 04:28:16;;;;;;;1.00;0.77;;;22.80;74.00;;;;;;5054797;28;20045;-47
2021/07/29 04:30:43;;;;;;;0.93;0.80;;;22.80;74.00;;;;;;5054783;28;20045;-48
2021/07/29 04:33:09;;;;;;;2.38;1.00;;;22.80;74.10;;;;;;5054294;28;20413;-49
2021/07/29 04:35:35;;;;;;;0.88;0.70;;;22.80;74.00;;;;;;5054101;28;20455;-52
2021/07/29 04:38:01;;;;;;;0.75;0.70;;;22.80;74.00;;;;;;5054843;28;20076;-52
2021/07/29 04:40:47;;;;;;;0.70;0.70;;;22.80;74.00;;;;;;5053268;28;20480;-49
2021/07/29 04:43:13;;;;;;;0.93;0.80;;;22.80;74.00;;;;;;5054261;28;20087;-47
2021/07/29 04:45:38;;;;;;;0.70;0.70;;;22.80;74.00;;;;;;5053851;28;20401;-48
2021/07/29 04:48:04;;;;;;;0.77;0.60;;;22.80;74.00;;;;;;5054233;28;20052;-47
2021/07/29 04:50:30;;;;;;;0.70;0.70;;;22.80;74.00;;;;;;5054354;28;20056;-50
2021/07/29 04:52:55;;;;;;;0.70;0.60;;;22.80;74.00;;;;;;5054447;28;20052;-55
2021/07/29 04:55:25;;;;;;;1.17;0.80;;;22.80;74.00;;;;;;5053095;28;20066;-62
2021/07/29 04:57:51;;;;;;;1.08;0.60;;;22.80;74.10;;;;;;5054270;28;20052;-60
2021/07/29 05:00:17;;;;;;;0.80;0.80;;;22.80;74.10;;;;;;5054086;28;20045;-51
2021/07/29 05:02:42;;;;;;;1.40;0.57;;;22.80;74.10;;;;;;5054115;28;20048;-46
2021/07/29 05:05:09;;;;;;;1.52;1.00;;;22.80;74.10;;;;;;5053620;28;20444;-50
2021/07/29 05:07:35;;;;;;;1.15;0.90;;;22.80;74.10;;;;;;5053323;28;20505;-47
2021/07/29 05:10:01;;;;;;;0.57;0.57;;;22.80;74.10;;;;;;5054157;28;20051;-51
2021/07/29 05:12:26;;;;;;;1.30;0.60;;;22.80;74.10;;;;;;5053322;28;20090;-49
2021/07/29 05:14:56;;;;;;;1.05;0.98;;;22.80;74.00;;;;;;5053907;28;20056;-50
2021/07/29 05:17:23;;;;;;;0.98;0.82;;;22.80;74.10;;;;;;5052844;28;20049;-48
2021/07/29 05:19:49;;;;;;;1.27;0.65;;;22.70;74.00;;;;;;5053686;28;20047;-49
2021/07/29 05:22:15;;;;;;;1.00;0.70;;;22.70;74.00;;;;;;5053737;28;20140;-48
2021/07/29 05:24:40;;;;;;;0.95;0.70;;;22.80;74.10;;;;;;5053926;28;20040;-46
2021/07/29 05:27:06;;;;;;;0.88;0.55;;;22.80;74.10;;;;;;5052750;28;20445;-50
2021/07/29 05:29:35;;;;;;;0.65;0.60;;;22.70;74.00;;;;;;5053650;28;20459;-50
2021/07/29 05:32:01;;;;;;;0.90;0.60;;;22.70;74.10;;;;;;5053436;28;20182;-46
2021/07/29 05:34:46;;;;;;;1.33;0.57;;;22.70;74.80;;;;;;5066678;28;20053;-49
2021/07/29 05:37:12;;;;;;;0.70;0.55;;;22.70;74.10;;;;;;5052196;28;20052;-49
2021/07/29 05:39:38;;;;;;;0.55;0.50;;;22.70;74.10;;;;;;5053553;28;20055;-47
2021/07/29 05:42:03;;;;;;;0.60;0.60;;;22.70;74.10;;;;;;5051400;28;20219;-49
2021/07/29 05:44:29;;;;;;;0.65;0.63;;;22.70;74.10;;;;;;5049508;28;20397;-45
2021/07/29 05:46:55;;;;;;;0.88;0.70;;;22.70;74.10;;;;;;5048831;28;20059;-47
2021/07/29 05:49:20;;;;;;;0.70;0.50;;;22.80;74.20;;;;;;5049435;28;20627;-44
2021/07/29 05:51:46;;;;;;;1.55;0.60;;;22.70;74.10;;;;;;5049079;28;20053;-49
2021/07/29 05:54:12;;;;;;;0.95;0.60;;;22.70;74.10;;;;;;5049722;28;20131;-47
2021/07/29 05:56:37;;;;;;;1.02;0.82;;;22.70;74.10;;;;;;5049362;28;20071;-49
2021/07/29 05:59:03;;;;;;;1.20;0.63;;;22.70;74.10;;;;;;5048652;28;20182;-50
2021/07/29 06:01:29;;;;;;;1.20;0.70;;;22.70;74.10;;;;;;5049675;28;20056;-47
2021/07/29 06:03:55;;;;;;;0.80;0.60;;;22.70;74.20;;;;;;5049302;28;20513;-47
2021/07/29 06:06:21;;;;;;;0.88;0.73;;;22.70;74.20;;;;;;5048631;28;20056;-47
2021/07/29 06:08:47;;;;;;;0.52;0.50;;;22.70;74.20;;;;;;5033004;28;20044;-48
2021/07/29 06:11:13;;;;;;;0.65;0.65;;;22.70;74.20;;;;;;5049130;28;20060;-57
2021/07/29 06:13:39;;;;;;;1.63;0.88;;;22.70;74.20;;;;;;5048924;28;20106;-47
2021/07/29 06:16:09;;;;;;;0.95;0.52;;;22.70;74.10;;;;;;5049106;28;20055;-49
2021/07/29 06:18:37;;;;;;;1.35;0.77;;;22.70;74.20;;;;;;5048456;28;20060;-46
2021/07/29 06:21:03;;;;;;;1.15;0.88;;;22.70;74.20;;;;;;5048547;28;20481;-52
2021/07/29 06:23:28;;;;;;;0.75;0.75;;;22.70;74.20;;;;;;5048751;28;20114;-47
2021/07/29 06:25:54;;;;;;;1.10;0.77;;;22.70;74.20;;;;;;5049215;28;20049;-45
2021/07/29 06:28:20;;;;;;;1.02;0.93;;;22.70;74.20;;;;;;5048709;28;20090;-49
2021/07/29 06:30:45;;;;;;;0.80;0.60;;;22.70;74.30;;;;;;5048644;28;20048;-49
2021/07/29 06:33:11;;;;;;;0.88;0.60;;;22.70;74.20;;;;;;5048801;28;20573;-46
2021/07/29 06:35:37;;;;;;;1.38;1.02;;;22.70;74.20;;;;;;5048904;28;20547;-46
2021/07/29 06:38:03;;;;;;;0.65;0.60;;;22.70;74.30;;;;;;5048711;28;20083;-50
2021/07/29 06:40:28;;;;;;;0.65;0.40;;;22.70;74.30;;;;;;5048990;28;20106;-50
2021/07/29 06:42:54;;;;;;;1.00;0.88;;;22.70;74.30;;;;;;5048918;28;20679;-50
2021/07/29 06:45:19;;;;;;;1.67;0.70;;;22.60;75.00;;;;;;5048726;28;20060;-47
2021/07/29 06:47:45;;;;;;;1.42;0.60;;;22.70;75.00;;;;;;5049354;28;20056;-49
2021/07/29 06:50:12;;;;;;;1.33;0.85;;;22.70;74.30;;;;;;5052793;28;20428;-48
2021/07/29 06:52:37;;;;;;;1.20;0.95;;;22.70;74.30;;;;;;5053051;28;20064;-50
2021/07/29 06:55:05;;;;;;;0.82;0.70;;;22.70;74.30;;;;;;5052808;28;20041;-49
2021/07/29 06:57:31;;;;;;;2.28;0.85;;;22.70;74.30;;;;;;5052581;28;20091;-48
2021/07/29 06:59:57;;;;;;;1.52;0.90;;;22.70;74.30;;;;;;5052522;28;20077;-52
2021/07/29 07:02:22;;;;;;;1.00;0.80;;;22.60;74.30;;;;;;5051872;28;20045;-50
2021/07/29 07:04:48;;;;;;;1.67;0.57;;;22.80;74.40;;;;;;5052516;28;20076;-46
2021/07/29 07:07:16;;;;;;;1.00;0.75;;;22.70;74.30;;;;;;5052289;28;20504;-44
2021/07/29 07:09:42;;;;;;;1.40;0.63;;;22.70;74.30;;;;;;5052690;28;20052;-47
2021/07/29 07:12:08;;;;;;;1.17;0.77;;;22.70;74.30;;;;;;5051760;28;20084;-43
2021/07/29 07:14:34;;;;;;;1.83;0.88;;;22.70;74.40;;;;;;5052263;28;20099;-49
2021/07/29 07:17:00;;;;;;;1.70;0.68;;;22.70;74.40;;;;;;5052366;28;20056;-47
2021/07/29 07:19:25;;;;;;;1.30;0.60;;;22.70;74.40;;;;;;5051922;28;20486;-46
2021/07/29 07:21:51;;;;;;;1.35;0.98;;;22.70;74.40;;;;;;5052250;28;20481;-49
2021/07/29 07:24:17;;;;;;;0.90;0.63;;;22.70;74.40;;;;;;5051859;28;20052;-49
2021/07/29 07:26:42;;;;;;;1.30;1.00;;;22.70;74.30;;;;;;5051977;28;20454;-48
2021/07/29 07:29:08;;;;;;;0.95;0.75;;;22.70;74.30;;;;;;5051983;28;20049;-49
2021/07/29 07:31:34;;;;;;;1.73;0.77;;;22.70;74.20;;;;;;5052176;28;20572;-51
2021/07/29 07:34:00;;;;;;;1.25;0.90;;;22.70;74.20;;;;;;5051351;28;20494;-50
2021/07/29 07:36:26;;;;;;;1.20;0.68;;;22.70;74.20;;;;;;5052004;28;20136;-49
2021/07/29 07:38:53;;;;;;;2.67;0.90;;;22.70;74.10;;;;;;5052009;28;20513;-49
2021/07/29 07:41:19;;;;;;;0.85;0.73;;;22.70;74.10;;;;;;5052061;28;20041;-50
2021/07/29 07:43:45;;;;;;;1.58;0.80;;;22.70;74.00;;;;;;5051386;28;20512;-46
2021/07/29 07:46:11;;;;;;;1.85;0.82;;;22.70;74.00;;;;;;5051721;28;20049;-49
2021/07/29 07:48:37;;;;;;;1.17;0.90;;;22.70;73.90;;;;;;5050524;28;20478;-49
2021/07/29 07:51:03;;;;;;;0.77;0.55;;;22.70;73.80;;;;;;5050817;28;20553;-47
2021/07/29 07:53:29;;;;;;;1.90;0.90;;;22.80;73.80;;;;;;5051511;28;20057;-49
2021/07/29 07:55:56;;;;;;;1.27;0.60;;;22.80;73.70;;;;;;5051380;28;20064;-50
2021/07/29 07:58:22;;;;;;;1.95;0.85;;;22.80;73.70;;;;;;5049350;28;20049;-48
2021/07/29 08:00:48;;;;;;;1.35;0.85;;;22.80;73.60;;;;;;5050064;28;20098;-47
2021/07/29 08:03:14;;;;;;;2.42;0.98;;;22.80;73.50;;;;;;5051466;28;20060;-48
2021/07/29 08:05:40;;;;;;;5.72;1.60;;;22.80;73.50;;;;;;5051056;28;20051;-50
2021/07/29 08:08:08;;;;;;;4.65;1.70;;;22.80;70.60;;;;;;5051336;28;20056;-48
2021/07/29 08:10:37;;;;;;;5.10;1.77;;;22.60;70.80;;;;;;5049892;28;20048;-51
2021/07/29 08:13:05;;;;;;;6.00;1.60;;;22.70;70.80;;;;;;5050862;28;20493;-50
2021/07/29 08:15:31;;;;;;;8.77;2.30;;;22.60;70.70;;;;;;5050902;28;20608;-48
2021/07/29 08:17:57;;;;;;;7.13;1.60;;;22.70;70.80;;;;;;5051087;28;20053;-51
2021/07/29 08:20:24;;;;;;;4.07;1.65;;;22.70;70.80;;;;;;5050238;28;20405;-49
2021/07/29 08:22:53;;;;;;;5.25;1.63;;;22.70;70.80;;;;;;5050363;28;20136;-49
2021/07/29 08:25:21;;;;;;;5.30;1.80;;;22.70;70.80;;;;;;5050885;28;20053;-44
2021/07/29 08:27:51;;;;;;;3.13;1.60;;;22.80;70.80;;;;;;5051035;28;20170;-52
2021/07/29 08:30:17;;;;;;;3.03;1.33;;;22.80;70.70;;;;;;5050503;28;20045;-52
2021/07/29 08:32:44;;;;;;;5.35;1.90;;;22.80;70.80;;;;;;5050679;28;20060;-49
2021/07/29 08:35:10;;;;;;;6.03;2.03;;;22.60;68.40;;;;;;5050240;28;20128;-47
2021/07/29 08:37:37;;;;;;;9.63;2.50;;;22.10;68.10;;;;;;5051144;28;20053;-50
2021/07/29 08:40:04;;;;;;;4.65;2.05;;;21.80;68.00;;;;;;5049417;28;20053;-47
2021/07/29 08:42:31;;;;;;;5.10;2.08;;;21.50;67.60;;;;;;5050487;28;20063;-47
2021/07/29 08:44:59;;;;;;;5.93;1.83;;;21.80;68.60;;;;;;5050125;28;20052;-47
2021/07/29 08:47:26;;;;;;;7.97;2.35;;;23.20;66.80;;;;;;5050153;28;20045;-53
2021/07/29 08:49:55;;;;;;;10.70;2.45;;;23.20;64.30;;;;;;5049846;28;20120;-49
2021/07/29 08:52:24;;;;;;;6.57;1.98;;;22.90;64.20;;;;;;5049754;28;20049;-44
2021/07/29 08:54:51;;;;;;;7.28;2.20;;;22.80;65.10;;;;;;5050193;28;20056;-44
2021/07/29 08:57:29;;;;;;;5.47;1.65;;;22.80;64.70;;;;;;5050154;28;20102;-44
2021/07/29 09:00:01;;;;;;;8.90;2.45;;;22.80;65.00;;;;;;5049802;28;20501;-47
2021/07/29 09:02:28;;;;;;;5.10;2.22;;;22.80;65.20;;;;;;5050118;28;20127;-45
2021/07/29 09:05:18;;;;;;;5.72;2.05;;;22.70;65.30;;;;;;5050551;28;20084;-50
2021/07/29 09:07:59;;;;;;;10.00;2.80;;;22.80;65.70;;;;;;5042868;28;20080;-47
2021/07/29 09:10:26;;;;;;;9.50;2.05;;;22.50;64.80;;;;;;5049953;28;20064;-47
2021/07/29 09:13:15;;;;;;;7.07;2.30;;;22.50;65.40;;;;;;5051666;28;20045;-55
2021/07/29 09:15:42;;;;;;;7.55;2.33;;;22.40;65.90;;;;;;5052461;28;20500;-54
2021/07/29 09:18:08;;;;;;;6.35;2.60;;;22.40;66.50;;;;;;5053022;28;20053;-52
2021/07/29 09:20:35;;;;;;;7.35;2.15;;;22.40;66.90;;;;;;5051748;28;20037;-56
2021/07/29 09:23:21;;;;;;;6.10;1.90;;;22.40;67.50;;;;;;5051066;28;20120;-50
2021/07/29 09:26:00;;;;;;;7.05;2.15;;;22.40;68.00;;;;;;5052301;28;20497;-52
2021/07/29 09:28:39;;;;;;;4.63;1.92;;;22.50;68.50;;;;;;5047334;28;20149;-56
2021/07/29 09:31:19;;;;;;;3.45;2.10;;;22.50;68.80;;;;;;5046274;28;20084;-48
2021/07/29 09:33:58;;;;;;;4.38;1.80;;;22.50;69.20;;;;;;5049539;28;20136;-51
2021/07/29 09:36:24;;;;;;;6.25;1.95;;;22.50;69.40;;;;;;5049650;28;20079;-53
2021/07/29 09:38:50;;;;;;;3.65;1.85;;;22.40;69.60;;;;;;5048905;28;20461;-38
2021/07/29 09:41:25;;;;;;;4.93;1.92;;;22.50;69.80;;;;;;5047651;28;20048;-41
2021/07/29 09:43:54;;;;;;;5.55;2.38;;;22.50;70.00;;;;;;5041513;28;20095;-41
2021/07/29 09:46:20;;;;;;;3.20;1.60;;;22.50;70.10;;;;;;5048606;28;20079;-43
2021/07/29 09:48:46;;;;;;;3.33;1.60;;;22.50;70.30;;;;;;5048786;28;20071;-46
2021/07/29 09:51:14;;;;;;;5.45;2.03;;;22.50;70.40;;;;;;5049570;28;20075;-45
2021/07/29 09:53:41;;;;;;;4.68;1.73;;;22.60;70.60;;;;;;5048327;28;20049;-45
2021/07/29 09:56:08;;;;;;;4.38;1.60;;;22.60;70.70;;;;;;5049466;28;20136;-47
2021/07/29 09:58:39;;;;;;;2.85;1.60;;;22.60;70.70;;;;;;5049281;28;20107;-44
2021/07/29 10:01:07;;;;;;;4.25;1.60;;;22.60;70.80;;;;;;5049347;28;20475;-44
2021/07/29 10:03:34;;;;;;;4.43;1.85;;;22.60;70.90;;;;;;5048352;28;20077;-46
2021/07/29 10:06:12;;;;;;;2.63;1.77;;;22.60;70.90;;;;;;5051223;28;20053;-42
2021/07/29 10:08:41;;;;;;;4.43;1.90;;;22.60;71.00;;;;;;5048561;28;20055;-46
2021/07/29 10:11:15;;;;;;;2.63;1.58;;;22.60;71.70;;;;;;5048870;28;20444;-47
2021/07/29 10:13:42;;;;;;;2.40;1.42;;;22.60;71.10;;;;;;5048338;28;20095;-47
2021/07/29 10:16:09;;;;;;;5.13;1.70;;;22.70;71.10;;;;;;5048920;28;20575;-45
2021/07/29 10:19:01;;;;;;;2.90;1.58;;;22.70;71.10;;;;;;5048608;28;20053;-47
2021/07/29 10:21:29;;;;;;;1.92;1.60;;;22.70;71.20;;;;;;5048997;28;20856;-45
2021/07/29 10:23:59;;;;;;;3.45;1.85;;;22.70;71.20;;;;;;5048615;28;20126;-47
2021/07/29 10:26:29;;;;;;;4.70;1.35;;;22.70;71.20;;;;;;5048369;28;20053;-49
2021/07/29 10:29:20;;;;;;;4.38;1.88;;;22.70;69.10;;;;;;5050389;28;20052;-47
2021/07/29 10:31:53;;;;;;;4.95;1.30;;;22.50;66.50;;;;;;5052020;28;20072;-48
2021/07/29 10:34:33;;;;;;;5.00;1.83;;;22.40;67.00;;;;;;5051420;28;20489;-50
2021/07/29 10:36:59;;;;;;;5.50;1.63;;;22.40;66.70;;;;;;5052026;28;20045;-51
2021/07/29 10:39:26;;;;;;;6.78;1.92;;;22.40;66.70;;;;;;5051681;28;20486;-51
2021/07/29 10:42:00;;;;;;;4.18;1.80;;;22.40;66.70;;;;;;5052008;28;20493;-51
2021/07/29 10:44:32;;;;;;;4.03;1.50;;;22.40;66.70;;;;;;5051980;28;20053;-48
2021/07/29 10:47:02;;;;;;;3.95;1.60;;;22.50;67.10;;;;;;5052217;28;20067;-51
2021/07/29 10:49:49;;;;;;;4.05;1.60;;;22.50;67.20;;;;;;5051764;28;20115;-51
2021/07/29 10:52:15;;;;;;;3.63;0.93;;;22.50;67.50;;;;;;5052197;28;20060;-49
2021/07/29 10:54:43;;;;;;;2.15;1.25;;;22.60;67.80;;;;;;5052314;28;20045;-51
2021/07/29 10:57:11;;;;;;;1.60;1.02;;;22.60;68.10;;;;;;5051653;28;20052;-52
2021/07/29 10:59:38;;;;;;;4.53;1.30;;;22.60;68.40;;;;;;5051582;28;20084;-52
2021/07/29 11:02:20;;;;;;;3.63;1.45;;;22.60;68.50;;;;;;5052293;28;20045;-51
2021/07/29 11:04:56;;;;;;;2.78;1.13;;;22.60;68.70;;;;;;5052200;28;20056;-52
2021/07/29 11:07:22;;;;;;;1.45;0.82;;;22.70;68.90;;;;;;5051970;28;20517;-52
2021/07/29 11:09:48;;;;;;;3.20;1.15;;;22.70;69.10;;;;;;5051926;28;20045;-50
2021/07/29 11:12:19;;;;;;;1.83;1.00;;;22.70;69.20;;;;;;5051388;28;20555;-52
2021/07/29 11:14:45;;;;;;;3.22;1.20;;;22.70;69.30;;;;;;5051856;28;20152;-50
2021/07/29 11:17:11;;;;;;;3.35;1.40;;;22.80;70.10;;;;;;5051698;28;20533;-52
2021/07/29 11:19:48;;;;;;;1.67;0.95;;;22.80;69.50;;;;;;5051922;28;20041;-51
2021/07/29 11:22:15;;;;;;;2.65;1.00;;;22.80;69.60;;;;;;5052137;28;20052;-52
2021/07/29 11:24:41;;;;;;;2.97;1.02;;;22.80;69.60;;;;;;5052223;28;20067;-52
2021/07/29 11:27:11;;;;;;;2.00;0.90;;;22.80;69.60;;;;;;5051723;28;20490;-49
2021/07/29 11:29:55;;;;;;;2.90;0.88;;;22.80;69.70;;;;;;5050393;28;20836;-51
2021/07/29 11:32:21;;;;;;;2.47;1.00;;;22.90;69.80;;;;;;5051851;28;20063;-51
2021/07/29 11:34:58;;;;;;;2.70;1.20;;;22.90;69.80;;;;;;5052950;28;20390;-51
2021/07/29 11:37:40;;;;;;;2.13;1.15;;;22.90;69.80;;;;;;5055805;28;20059;-52
2021/07/29 11:40:15;;;;;;;2.17;0.93;;;22.90;69.80;;;;;;5054919;28;20379;-50
2021/07/29 11:42:41;;;;;;;2.25;1.20;;;22.90;69.90;;;;;;5055459;28;20127;-49
2021/07/29 11:45:20;;;;;;;1.65;0.80;;;22.90;69.90;;;;;;5054700;28;20545;-49
2021/07/29 11:47:45;;;;;;;1.13;0.90;;;22.90;69.90;;;;;;5055390;28;20076;-51
2021/07/29 11:50:11;;;;;;;1.25;0.73;;;22.90;69.90;;;;;;5054762;28;20075;-52
2021/07/29 11:52:51;;;;;;;2.90;1.05;;;22.90;69.90;;;;;;5054686;28;20044;-50
2021/07/29 11:55:17;;;;;;;1.70;1.02;;;23.00;69.90;;;;;;5035448;28;20100;-49
2021/07/29 11:57:44;;;;;;;1.33;0.90;;;23.00;69.90;;;;;;5051438;28;20064;-52
2021/07/29 12:00:13;;;;;;;1.20;0.90;;;23.00;70.60;;;;;;5053975;28;20040;-51
2021/07/29 12:02:40;;;;;;;1.17;0.73;;;23.00;69.90;;;;;;5055342;28;20048;-50
2021/07/29 12:05:07;;;;;;;1.15;0.70;;;23.00;69.90;;;;;;5055230;28;20048;-49
2021/07/29 12:07:35;;;;;;;1.95;1.17;;;23.10;69.90;;;;;;5054876;28;20052;-48
2021/07/29 12:10:01;;;;;;;1.17;0.90;;;23.10;69.90;;;;;;5054098;28;20045;-51
2021/07/29 12:12:27;;;;;;;1.77;0.63;;;23.10;69.90;;;;;;5054881;28;20037;-49
2021/07/29 12:14:53;;;;;;;1.83;0.75;;;23.10;69.90;;;;;;5054412;28;20044;-51
2021/07/29 12:17:23;;;;;;;3.53;1.10;;;23.10;69.90;;;;;;5054848;28;20440;-49
2021/07/29 12:20:04;;;;;;;1.45;0.70;;;23.10;69.90;;;;;;5054320;28;20056;-51
2021/07/29 12:22:31;;;;;;;1.83;0.60;;;23.10;69.90;;;;;;5054677;28;20057;-51
2021/07/29 12:25:02;;;;;;;1.60;0.90;;;23.10;69.90;;;;;;5054660;28;20048;-50
2021/07/29 12:27:42;;;;;;;3.22;1.00;;;23.10;69.80;;;;;;5054901;28;20048;-48
2021/07/29 12:30:27;;;;;;;1.00;0.57;;;23.20;69.80;;;;;;5053414;28;20045;-48
2021/07/29 12:33:10;;;;;;;2.28;0.93;;;23.20;69.80;;;;;;5053974;28;20044;-52
2021/07/29 12:35:42;;;;;;;2.15;1.10;;;23.20;69.80;;;;;;5054395;28;20044;-48
2021/07/29 12:38:09;;;;;;;2.00;0.70;;;23.20;69.80;;;;;;5054206;28;20556;-50
2021/07/29 12:40:35;;;;;;;1.65;0.73;;;23.20;69.80;;;;;;5054014;28;20116;-51
2021/07/29 12:43:20;;;;;;;1.50;0.60;;;23.20;69.80;;;;;;5054069;28;20116;-52
2021/07/29 12:45:54;;;;;;;1.75;0.70;;;23.20;69.80;;;;;;5053477;28;20106;-53
2021/07/29 12:48:24;;;;;;;2.05;0.82;;;23.20;69.70;;;;;;5054415;28;20056;-51
2021/07/29 12:50:51;;;;;;;1.45;0.95;;;23.20;69.70;;;;;;5053858;28;20052;-51
2021/07/29 12:53:17;;;;;;;1.98;0.90;;;23.20;69.80;;;;;;5053473;28;20060;-52